Time;durP1;ratioP1;P1;durP2;ratioP2;P2;SDS_P1;SDS_P2;PMS_P1;PMS_P2;Temp;Humidity;BMP_temperature;BMP_pressure;BME280_temperature;BME280_humidity;BME280_pressure;Samples;Min_cycle;Max_cycle;Signal;HPM_P1;HPM_P2
2023/07/10 00:02:29;;;;;;;10.70;3.00;;;;;;;13.61;64.11;100243.98;220463;1258;140384;-67
2023/07/10 00:07:34;;;;;;;2.90;2.70;;;;;;;13.57;64.48;100242.34;218362;1257;140811;-67
2023/07/10 00:12:40;;;;;;;3.80;2.80;;;;;;;13.51;64.75;100241.86;218358;1260;140277;-69
2023/07/10 00:17:51;;;;;;;8.70;3.30;;;;;;;13.46;64.94;100233.80;218915;1259;139883;-70
2023/07/10 00:22:55;;;;;;;6.50;2.70;;;;;;;13.38;65.29;100241.17;217674;1258;141105;-68
2023/07/10 00:28:00;;;;;;;6.70;2.70;;;;;;;13.31;65.30;100251.31;219128;1257;141262;-68
2023/07/10 00:33:09;;;;;;;3.90;2.60;;;;;;;13.17;65.73;100255.16;218532;1257;140984;-69
2023/07/10 00:38:23;;;;;;;3.40;2.80;;;;;;;13.10;66.20;100258.04;219201;1256;140995;-71
2023/07/10 00:43:51;;;;;;;4.50;3.20;;;;;;;13.09;66.11;100258.64;218156;1257;141806;-69
2023/07/10 00:49:12;;;;;;;4.00;3.10;;;;;;;13.03;66.41;100251.46;218001;1258;140763;-68
2023/07/10 00:54:30;;;;;;;3.30;2.30;;;;;;;12.90;66.28;100251.52;218467;1258;140534;-68
2023/07/10 00:59:38;;;;;;;6.10;3.40;;;;;;;12.76;66.80;100246.59;218421;1260;140046;-68
2023/07/10 01:04:45;;;;;;;3.40;3.10;;;;;;;12.69;67.13;100239.27;218118;1257;140499;-68
2023/07/10 01:09:56;;;;;;;3.40;3.00;;;;;;;12.63;67.43;100230.37;217871;1257;139764;-71
2023/07/10 01:15:01;;;;;;;4.30;3.50;;;;;;;12.55;68.01;100230.67;218088;1260;141208;-70
2023/07/10 01:20:35;;;;;;;3.50;3.20;;;;;;;12.49;67.85;100229.60;218927;1257;141066;-69
2023/07/10 01:25:54;;;;;;;3.90;3.50;;;;;;;12.44;68.20;100229.88;219018;1258;140030;-71
2023/07/10 01:31:04;;;;;;;6.80;3.30;;;;;;;12.44;68.54;100228.74;219291;1257;140538;-70
2023/07/10 01:36:12;;;;;;;4.40;3.30;;;;;;;12.40;68.50;100231.16;219859;1260;140839;-73
2023/07/10 01:41:39;;;;;;;8.10;4.30;;;;;;;12.35;68.61;100227.84;218168;1260;140125;-69
2023/07/10 01:46:44;;;;;;;5.80;4.40;;;;;;;12.27;68.77;100220.73;217729;1260;140042;-65
2023/07/10 01:51:49;;;;;;;7.00;4.10;;;;;;;12.23;69.08;100210.16;220475;1257;141809;-65
2023/07/10 01:56:54;;;;;;;6.30;4.50;;;;;;;12.21;69.22;100208.03;220513;1257;142032;-68
2023/07/10 02:01:58;;;;;;;5.70;4.10;;;;;;;12.20;69.31;100200.90;220423;1256;140543;-68
2023/07/10 02:07:03;;;;;;;7.50;3.70;;;;;;;12.25;69.45;100209.33;219926;1258;141588;-67
2023/07/10 02:12:08;;;;;;;15.10;3.80;;;;;;;12.26;69.43;100205.14;219123;1257;140407;-67
2023/07/10 02:17:12;;;;;;;5.20;3.40;;;;;;;12.17;69.65;100198.48;218939;1256;140092;-70
2023/07/10 02:22:16;;;;;;;5.20;4.10;;;;;;;12.16;69.98;100203.52;218552;1257;140809;-67
2023/07/10 02:27:21;;;;;;;4.00;3.40;;;;;;;12.19;70.09;100206.66;218653;1257;141417;-69
2023/07/10 02:32:26;;;;;;;8.20;4.40;;;;;;;12.15;70.01;100205.11;218455;1257;140440;-67
2023/07/10 02:37:30;;;;;;;5.60;3.90;;;;;;;12.10;70.33;100200.67;218036;1260;140394;-67
2023/07/10 02:42:35;;;;;;;4.30;3.10;;;;;;;12.10;70.29;100205.92;218785;1257;139972;-67
2023/07/10 02:47:40;;;;;;;7.40;3.70;;;;;;;12.08;70.45;100214.27;218704;1257;139974;-67
2023/07/10 02:52:44;;;;;;;7.50;4.00;;;;;;;12.02;70.84;100212.77;217892;1260;141266;-70
2023/07/10 02:57:50;;;;;;;19.50;4.30;;;;;;;12.00;71.15;100217.90;218879;1256;141206;-66
2023/07/10 03:02:55;;;;;;;3.90;3.50;;;;;;;12.06;71.32;100222.39;218409;1256;140448;-67
2023/07/10 03:08:01;;;;;;;5.50;3.20;;;;;;;12.17;71.62;100221.10;217909;1257;140189;-70
2023/07/10 03:13:05;;;;;;;5.80;4.20;;;;;;;12.28;71.61;100223.30;219320;1256;140530;-67
2023/07/10 03:18:10;;;;;;;3.10;2.50;;;;;;;12.38;71.66;100230.95;218470;1257;140299;-67
2023/07/10 03:23:14;;;;;;;6.50;3.60;;;;;;;12.45;71.79;100222.55;219145;1256;140086;-67
2023/07/10 03:28:19;;;;;;;7.10;4.10;;;;;;;12.52;71.80;100225.27;218850;1256;140593;-66
2023/07/10 03:33:24;;;;;;;3.50;2.70;;;;;;;12.65;72.19;100223.13;219320;1256;141032;-67
2023/07/10 03:38:28;;;;;;;3.80;3.30;;;;;;;12.78;72.17;100225.33;219023;1257;141031;-68
2023/07/10 03:43:33;;;;;;;4.20;3.30;;;;;;;12.89;72.21;100223.66;220353;1256;140646;-67
2023/07/10 03:48:38;;;;;;;7.80;3.60;;;;;;;13.03;72.45;100223.14;219484;1256;140644;-67
2023/07/10 03:53:42;;;;;;;3.40;3.00;;;;;;;13.19;72.56;100220.95;219621;1256;140087;-66
2023/07/10 03:58:47;;;;;;;7.40;4.10;;;;;;;13.35;72.70;100224.19;220344;1256;140086;-67
2023/07/10 04:03:52;;;;;;;9.60;4.60;;;;;;;13.59;72.97;100222.51;218167;1256;140156;-66
2023/07/10 04:08:59;;;;;;;8.70;4.10;;;;;;;13.85;73.14;100212.27;219008;1256;140168;-67
2023/07/10 04:14:04;;;;;;;4.80;3.70;;;;;;;14.07;73.10;100209.69;217945;1256;141024;-67
2023/07/10 04:19:09;;;;;;;5.60;4.70;;;;;;;14.22;73.01;100203.74;218417;1257;139992;-68
2023/07/10 04:24:13;;;;;;;3.80;3.50;;;;;;;14.31;73.08;100204.42;218999;1256;140579;-66
2023/07/10 04:29:18;;;;;;;6.70;3.60;;;;;;;14.47;73.09;100198.90;218182;1256;139884;-68
2023/07/10 04:34:23;;;;;;;4.00;3.30;;;;;;;14.68;73.00;100202.19;218663;1256;140789;-67
2023/07/10 04:39:28;;;;;;;12.70;4.30;;;;;;;14.90;73.09;100203.95;218735;1256;140141;-67
2023/07/10 04:44:32;;;;;;;8.40;4.30;;;;;;;15.14;73.21;100201.77;218438;1256;140931;-68
2023/07/10 04:49:37;;;;;;;7.30;5.40;;;;;;;15.70;73.35;100202.34;218182;1256;140214;-68
2023/07/10 04:54:42;;;;;;;14.50;5.90;;;;;;;16.93;71.74;100193.02;218419;1257;140430;-67
2023/07/10 04:59:46;;;;;;;17.90;6.30;;;;;;;17.84;69.97;100190.28;218355;1256;141501;-66
2023/07/10 05:04:51;;;;;;;7.80;4.90;;;;;;;18.37;68.87;100185.85;218747;1257;140876;-66
2023/07/10 05:09:57;;;;;;;8.50;4.70;;;;;;;18.84;67.60;100181.79;218233;1256;140212;-67
2023/07/10 05:15:02;;;;;;;19.40;4.90;;;;;;;20.48;64.48;100179.09;219174;1256;140404;-66
2023/07/10 05:20:06;;;;;;;10.40;4.60;;;;;;;22.48;61.74;100179.02;217757;1259;140943;-70
2023/07/10 05:25:11;;;;;;;6.90;4.20;;;;;;;23.59;59.99;100180.98;218278;1259;140255;-71
2023/07/10 05:30:16;;;;;;;5.50;3.60;;;;;;;26.23;56.83;100191.05;219531;1256;139227;-71
2023/07/10 05:35:20;;;;;;;5.30;3.80;;;;;;;29.41;52.77;100192.88;219064;1256;141350;-71
2023/07/10 05:40:24;;;;;;;6.10;3.80;;;;;;;30.98;49.60;100194.53;220221;1256;140807;-73
2023/07/10 05:45:29;;;;;;;4.20;2.80;;;;;;;33.65;44.62;100202.48;218709;1257;139844;-73
2023/07/10 05:50:33;;;;;;;;;;;;;;;35.41;40.99;100206.12;219588;1256;140088;-73
2023/07/10 05:55:47;;;;;;;1.90;1.80;;;;;;;37.14;37.50;100217.65;219550;1257;126249;-73
2023/07/10 06:00:56;;;;;;;1.60;1.50;;;;;;;38.75;34.22;100213.70;220260;1256;140211;-70
2023/07/10 06:06:03;;;;;;;2.90;2.20;;;;;;;40.29;31.99;100205.89;218378;1256;139493;-74
2023/07/10 06:11:09;;;;;;;4.40;2.00;;;;;;;40.44;30.45;100201.58;218375;1257;139395;-73
2023/07/10 06:16:14;;;;;;;2.70;1.40;;;;;;;41.25;29.14;100199.63;218765;1259;140637;-70
2023/07/10 06:21:19;;;;;;;4.60;2.00;;;;;;;42.35;27.75;100197.34;217576;1257;139564;-71
2023/07/10 06:26:24;;;;;;;2.20;2.00;;;;;;;43.27;26.30;100199.20;218985;1256;151122;-74
2023/07/10 06:31:28;;;;;;;4.50;1.70;;;;;;;43.57;24.76;100195.28;217788;1257;140131;-75
2023/07/10 06:36:36;;;;;;;1.90;1.60;;;;;;;44.15;23.84;100191.46;218374;1256;139756;-71
2023/07/10 06:41:40;;;;;;;2.30;1.50;;;;;;;44.52;23.61;100185.39;217786;1257;140438;-72
2023/07/10 06:46:44;;;;;;;3.30;1.70;;;;;;;44.75;22.28;100183.27;217962;1257;160118;-74
2023/07/10 06:51:58;;;;;;;5.10;2.50;;;;;;;44.50;21.83;100180.55;218049;1256;140122;-74
2023/07/10 06:57:04;;;;;;;2.00;1.90;;;;;;;43.85;21.61;100182.61;218754;1259;139268;-71
2023/07/10 07:02:13;;;;;;;1.20;1.10;;;;;;;43.72;21.04;100171.89;218581;1256;139238;-72
2023/07/10 07:07:19;;;;;;;2.60;1.50;;;;;;;43.75;21.12;100164.95;218756;1256;139618;-72
2023/07/10 07:12:48;;;;;;;3.70;1.40;;;;;;;43.65;20.56;100156.27;219480;1256;139120;-71
2023/07/10 07:18:03;;;;;;;3.30;1.60;;;;;;;43.65;20.86;100157.42;219726;1256;140535;-73
2023/07/10 07:23:07;;;;;;;2.00;1.40;;;;;;;44.05;20.54;100155.84;219445;1256;138914;-72
2023/07/10 07:28:13;;;;;;;1.90;1.10;;;;;;;44.04;20.23;100151.09;218653;1256;139540;-67
2023/07/10 07:33:19;;;;;;;1.40;1.30;;;;;;;43.41;20.61;100145.23;219416;1257;140835;-68
2023/07/10 07:38:24;;;;;;;1.40;1.20;;;;;;;42.16;20.17;100144.19;220249;1256;139247;-72
2023/07/10 07:43:28;;;;;;;5.00;1.40;;;;;;;40.61;19.90;100136.90;220277;1256;139242;-71
2023/07/10 07:48:33;;;;;;;1.40;1.30;;;;;;;39.26;20.83;100130.60;220271;1256;140769;-72
2023/07/10 07:53:40;;;;;;;2.00;1.40;;;;;;;38.35;22.12;100129.36;219104;1256;140152;-71
2023/07/10 07:58:44;;;;;;;1.20;1.20;;;;;;;37.50;22.91;100133.38;219767;1256;140048;-71
2023/07/10 08:03:48;;;;;;;1.70;1.60;;;;;;;36.67;23.40;100136.77;217691;1256;140060;-71
2023/07/10 08:08:52;;;;;;;1.80;1.60;;;;;;;36.17;23.56;100139.23;218737;1256;140412;-70
2023/07/10 08:13:57;;;;;;;2.90;1.50;;;;;;;35.83;23.62;100136.20;217605;1257;141747;-71
2023/07/10 08:19:02;;;;;;;4.60;1.40;;;;;;;35.50;24.60;100132.11;217611;1257;140995;-70
2023/07/10 08:24:07;;;;;;;20.30;2.90;;;;;;;35.50;24.38;100131.00;218685;1257;139669;-71
2023/07/10 08:29:25;;;;;;;2.10;2.00;;;;;;;35.64;24.49;100132.77;218478;1260;140490;-69
2023/07/10 08:34:31;;;;;;;4.90;1.80;;;;;;;35.71;24.27;100129.77;218506;1256;139971;-71
2023/07/10 08:39:36;;;;;;;1.50;1.40;;;;;;;35.40;23.86;100124.09;217853;1256;140106;-68
2023/07/10 08:44:40;;;;;;;4.80;1.70;;;;;;;34.82;23.90;100126.40;217626;1256;140127;-67
2023/07/10 08:50:06;;;;;;;1.70;1.60;;;;;;;34.54;24.25;100120.08;218035;1256;139141;-69
2023/07/10 08:55:12;;;;;;;2.00;1.60;;;;;;;34.09;25.28;100110.60;217588;1259;141210;-69
2023/07/10 09:00:17;;;;;;;1.70;1.60;;;;;;;34.52;25.88;100106.38;218837;1256;140367;-68
2023/07/10 09:05:27;;;;;;;1.20;1.20;;;;;;;35.12;25.17;100105.45;217506;1257;230916;-68
2023/07/10 09:10:41;;;;;;;2.60;1.60;;;;;;;35.04;24.58;100103.30;217322;1257;140084;-71
2023/07/10 09:15:57;;;;;;;3.00;1.70;;;;;;;34.73;24.88;100102.14;218213;1256;139771;-68
2023/07/10 09:21:15;;;;;;;2.20;2.00;;;;;;;34.23;25.26;100099.86;217673;1256;140411;-72
2023/07/10 09:26:25;;;;;;;5.30;2.10;;;;;;;33.83;25.95;100107.38;219023;1256;139786;-71
2023/07/10 09:32:04;;;;;;;2.90;1.60;;;;;;;33.31;26.40;100110.80;217705;1257;140981;-67
2023/07/10 09:37:12;;;;;;;2.30;2.10;;;;;;;32.80;26.24;100117.20;218760;1256;139419;-70
2023/07/10 09:42:19;;;;;;;1.90;1.80;;;;;;;32.77;26.80;100123.56;220439;1256;139502;-67
2023/07/10 09:47:22;;;;;;;19.30;3.80;;;;;;;32.54;26.35;100119.45;220564;1256;140248;-70
2023/07/10 09:52:30;;;;;;;3.40;2.10;;;;;;;32.26;26.92;100117.61;220186;1255;139371;-70
2023/07/10 09:57:53;;;;;;;2.30;2.10;;;;;;;32.23;27.16;100117.41;220299;1256;139453;-70
2023/07/10 10:03:00;;;;;;;5.40;2.10;;;;;;;32.39;28.09;100114.98;218083;1257;139935;-69
2023/07/10 10:08:19;;;;;;;3.10;2.40;;;;;;;32.60;28.30;100102.42;219054;1256;139735;-70
2023/07/10 10:13:27;;;;;;;2.10;1.80;;;;;;;32.60;27.73;100085.08;218741;1257;138872;-70
2023/07/10 10:18:44;;;;;;;4.00;1.50;;;;;;;32.69;27.53;100085.04;218160;1259;139679;-69
2023/07/10 10:23:51;;;;;;;1.80;1.70;;;;;;;33.19;27.46;100084.38;218641;1258;139705;-70
2023/07/10 10:29:09;;;;;;;4.30;2.20;;;;;;;33.22;27.14;100084.80;218709;1256;141418;-69
2023/07/10 10:34:21;;;;;;;2.00;1.90;;;;;;;32.84;27.34;100089.02;218627;1257;139378;-69
2023/07/10 10:39:38;;;;;;;24.30;2.70;;;;;;;32.48;27.56;100085.23;217834;1256;292648;-70
2023/07/10 10:44:53;;;;;;;1.90;1.80;;;;;;;32.27;28.34;100083.91;218361;1256;139479;-69
2023/07/10 10:50:20;;;;;;;2.50;2.30;;;;;;;32.42;28.74;100072.83;218501;1257;140520;-70
2023/07/10 10:55:43;;;;;;;2.20;1.90;;;;;;;32.92;28.27;100065.44;218534;1256;140144;-69
2023/07/10 11:01:37;;;;;;;1.50;1.40;;;;;;;33.30;27.63;100055.39;219017;1257;140878;-70
2023/07/10 11:07:05;;;;;;;1.60;1.50;;;;;;;33.25;26.70;100046.55;218373;1255;139492;-72
2023/07/10 11:12:33;;;;;;;3.00;1.70;;;;;;;33.11;27.24;100044.44;218753;1256;139907;-73
2023/07/10 11:17:37;;;;;;;4.20;2.40;;;;;;;33.30;27.89;100037.33;217639;1257;139224;-71
2023/07/10 11:22:49;;;;;;;;;;;;;;;33.27;27.88;100025.69;220283;1256;139569;-71
2023/07/10 11:27:53;;;;;;;2.30;2.00;;;;;;;33.18;27.76;100013.65;220345;1256;125904;-71
2023/07/10 11:33:17;;;;;;;2.30;2.10;;;;;;;33.01;27.61;100003.46;220405;1256;140964;-71
2023/07/10 11:38:22;;;;;;;2.60;2.10;;;;;;;33.09;27.20;99995.02;220291;1256;140088;-72
2023/07/10 11:43:25;;;;;;;2.50;2.20;;;;;;;33.29;27.09;99991.27;220321;1259;139341;-70
2023/07/10 11:48:43;;;;;;;1.70;1.60;;;;;;;33.16;26.53;99986.63;220314;1256;140884;-71
2023/07/10 11:53:47;;;;;;;35.90;4.70;;;;;;;32.64;26.07;99986.08;219898;1257;140937;-71
2023/07/10 11:58:51;;;;;;;2.80;1.70;;;;;;;32.34;26.37;99976.59;219099;1256;140863;-71
2023/07/10 12:03:55;;;;;;;;;;;;;;;32.49;26.74;99963.34;217840;1257;139337;-71
2023/07/10 12:09:01;;;;;;;2.30;2.10;;;;;;;32.16;26.69;99952.35;219546;1256;126300;-72
2023/07/10 12:14:05;;;;;;;;;;;;;;;31.82;27.28;99941.97;219120;1256;139414;-71
2023/07/10 12:19:14;;;;;;;;;;;;;;;31.74;27.96;99935.40;218145;1257;126080;-71
2023/07/10 12:24:20;;;;;;;2.50;2.30;;;;;;;31.83;28.11;99933.00;219710;1257;127283;-71
2023/07/10 12:29:25;;;;;;;3.80;2.30;;;;;;;31.97;28.24;99915.71;218845;1261;139283;-71
2023/07/10 12:34:30;;;;;;;5.50;2.40;;;;;;;31.84;29.39;99896.95;218447;1257;139594;-71
2023/07/10 12:39:34;;;;;;;1.60;1.50;;;;;;;31.47;28.75;99904.35;217807;1256;139209;-71
2023/07/10 12:44:44;;;;;;;8.40;2.00;;;;;;;31.05;28.69;99910.51;218736;1256;140617;-71
2023/07/10 12:49:54;;;;;;;2.40;2.20;;;;;;;30.90;29.26;99914.88;218187;1259;139534;-71
2023/07/10 12:55:04;;;;;;;2.20;2.00;;;;;;;30.77;30.09;99918.98;217808;1256;140522;-71
2023/07/10 13:00:11;;;;;;;14.10;3.00;;;;;;;30.60;30.76;99922.73;219028;1257;139831;-72
2023/07/10 13:05:31;;;;;;;4.90;3.70;;;;;;;30.46;30.91;99907.69;217766;1256;141388;-71
2023/07/10 13:10:45;;;;;;;2.00;1.90;;;;;;;30.33;31.17;99903.48;218661;1256;140640;-71
2023/07/10 13:15:58;;;;;;;1.80;1.70;;;;;;;30.19;31.35;99904.02;217583;1262;139738;-71
2023/07/10 13:21:05;;;;;;;4.00;2.20;;;;;;;30.04;31.57;99904.86;218837;1256;139942;-71
2023/07/10 13:26:19;;;;;;;2.30;2.00;;;;;;;30.01;30.93;99898.35;219716;1257;141067;-70
2023/07/10 13:31:32;;;;;;;7.80;2.20;;;;;;;30.09;31.84;99889.17;219108;1259;139391;-70
2023/07/10 13:36:37;;;;;;;2.40;2.20;;;;;;;30.29;31.79;99880.86;220637;1257;141364;-72
2023/07/10 13:41:42;;;;;;;2.10;2.00;;;;;;;30.78;31.24;99880.05;220445;1255;138896;-71
2023/07/10 13:46:47;;;;;;;3.90;2.40;;;;;;;31.11;30.58;99872.31;220373;1256;139455;-71
2023/07/10 13:51:52;;;;;;;2.90;2.20;;;;;;;31.20;29.88;99866.31;219192;1256;139128;-71
2023/07/10 13:56:58;;;;;;;2.90;2.60;;;;;;;31.36;29.68;99860.82;218520;1257;139197;-71
2023/07/10 14:02:21;;;;;;;1.90;1.70;;;;;;;31.41;29.61;99854.84;218556;1257;138939;-72
2023/07/10 14:07:28;;;;;;;2.70;2.40;;;;;;;31.36;29.43;99851.29;218888;1256;139455;-71
2023/07/10 14:12:36;;;;;;;3.50;2.20;;;;;;;31.37;29.42;99842.10;219067;1257;139599;-71
2023/07/10 14:17:42;;;;;;;2.60;2.40;;;;;;;31.29;29.52;99839.85;217864;1257;140179;-70
2023/07/10 14:22:46;;;;;;;;;;;;;;;31.14;29.20;99833.41;218838;1257;139527;-71
2023/07/10 14:27:51;;;;;;;4.40;2.10;;;;;;;30.96;29.46;99829.10;218307;1257;126292;-71
2023/07/10 14:32:57;;;;;;;2.20;1.90;;;;;;;30.86;29.65;99829.56;217963;1257;140111;-70
2023/07/10 14:38:17;;;;;;;3.10;2.10;;;;;;;30.78;29.28;99821.34;217968;1257;139397;-70
2023/07/10 14:43:21;;;;;;;4.10;2.50;;;;;;;30.67;30.08;99821.86;218133;1260;139167;-71
2023/07/10 14:48:26;;;;;;;3.00;2.50;;;;;;;30.64;29.45;99816.29;218941;1259;139858;-71
2023/07/10 14:53:30;;;;;;;3.00;1.90;;;;;;;30.58;29.51;99810.22;217736;1257;138762;-71
2023/07/10 14:58:34;;;;;;;3.90;2.40;;;;;;;30.47;29.44;99815.77;219152;1260;139600;-68
2023/07/10 15:03:38;;;;;;;61.30;6.60;;;;;;;30.43;29.68;99818.89;218612;1257;139494;-71
2023/07/10 15:08:42;;;;;;;4.30;2.50;;;;;;;30.39;29.82;99815.14;218970;1257;139581;-71
2023/07/10 15:13:45;;;;;;;2.50;2.20;;;;;;;30.33;29.30;99817.61;218378;1260;140096;-70
2023/07/10 15:18:51;;;;;;;2.20;2.00;;;;;;;30.29;29.54;99806.38;219455;1260;139453;-71
2023/07/10 15:23:57;;;;;;;4.60;2.80;;;;;;;30.26;29.52;99802.17;220315;1260;139808;-71
2023/07/10 15:29:03;;;;;;;2.90;2.60;;;;;;;30.23;29.91;99802.20;220514;1257;139754;-71
2023/07/10 15:34:16;;;;;;;2.50;2.40;;;;;;;30.20;29.61;99795.30;220296;1257;138687;-71
2023/07/10 15:39:20;;;;;;;2.50;2.30;;;;;;;30.17;29.53;99793.36;220516;1256;139636;-73
2023/07/10 15:44:27;;;;;;;3.40;2.70;;;;;;;30.15;29.65;99788.85;220354;1256;140182;-74
2023/07/10 15:49:37;;;;;;;3.10;2.80;;;;;;;30.16;29.92;99781.16;217847;1257;139150;-73
2023/07/10 15:54:45;;;;;;;5.50;2.60;;;;;;;30.15;29.91;99777.46;218844;1260;139296;-73
2023/07/10 16:00:01;;;;;;;6.30;2.50;;;;;;;30.19;29.95;99783.02;218353;1256;140344;-73
2023/07/10 16:05:32;;;;;;;8.20;3.00;;;;;;;30.21;30.08;99781.33;218226;1257;139179;-73
2023/07/10 16:10:45;;;;;;;2.70;2.50;;;;;;;30.12;30.12;99778.73;218662;1258;140651;-74
2023/07/10 16:16:00;;;;;;;6.30;2.40;;;;;;;30.01;30.18;99774.89;218024;1257;139546;-71
2023/07/10 16:21:22;;;;;;;2.70;2.30;;;;;;;29.92;30.67;99768.67;218263;1257;139029;-71
2023/07/10 16:26:30;;;;;;;2.70;2.40;;;;;;;29.84;30.68;99762.78;218183;1257;139924;-72
2023/07/10 16:31:43;;;;;;;;;;;;;;;29.72;30.55;99754.52;218153;1259;140241;-71
2023/07/10 16:36:51;;;;;;;3.10;2.80;;;;;;;29.57;31.02;99747.48;218096;1260;125682;-71
2023/07/10 16:41:59;;;;;;;2.70;2.10;;;;;;;29.45;31.27;99735.54;218288;1260;139054;-71
2023/07/10 16:47:17;;;;;;;3.50;2.00;;;;;;;29.25;31.79;99725.14;218786;1257;139653;-71
2023/07/10 16:52:21;;;;;;;7.20;3.20;;;;;;;29.09;32.27;99721.10;218581;1257;139843;-71
2023/07/10 16:57:30;;;;;;;3.70;2.80;;;;;;;28.98;32.40;99707.38;218981;1257;139603;-71
2023/07/10 17:02:34;;;;;;;4.80;2.70;;;;;;;28.83;33.04;99706.23;219592;1257;140582;-70
2023/07/10 17:07:38;;;;;;;12.20;2.80;;;;;;;28.69;33.06;99701.12;218584;1257;138916;-70
2023/07/10 17:12:45;;;;;;;5.50;2.70;;;;;;;28.59;33.38;99693.81;218993;1257;141071;-71
2023/07/10 17:17:51;;;;;;;5.00;3.30;;;;;;;28.42;34.70;99697.27;219774;1260;139919;-67
2023/07/10 17:22:57;;;;;;;3.00;2.60;;;;;;;28.22;35.12;99698.70;220048;1257;140042;-71
2023/07/10 17:28:23;;;;;;;6.60;3.00;;;;;;;28.06;35.96;99688.66;219881;1258;139912;-71
2023/07/10 17:33:46;;;;;;;3.30;2.90;;;;;;;27.85;36.73;99680.77;219414;1257;140257;-71
2023/07/10 17:38:55;;;;;;;4.60;2.80;;;;;;;27.64;37.15;99678.61;219712;1260;139695;-71
2023/07/10 17:44:27;;;;;;;6.20;3.00;;;;;;;27.40;37.90;99678.80;218895;1259;139392;-71
2023/07/10 17:49:46;;;;;;;3.40;2.90;;;;;;;27.13;38.43;99687.80;217844;1261;139268;-67
2023/07/10 17:54:57;;;;;;;6.50;3.50;;;;;;;26.83;39.18;99689.92;218504;1261;140444;-71
2023/07/10 18:00:06;;;;;;;5.00;3.30;;;;;;;26.49;39.96;99689.38;218467;1261;140891;-71
2023/07/10 18:05:17;;;;;;;39.70;5.70;;;;;;;26.18;40.37;99688.45;217935;1258;140205;-70
2023/07/10 18:10:25;;;;;;;8.20;3.50;;;;;;;25.97;40.75;99687.17;217905;1257;139652;-71
2023/07/10 18:15:31;;;;;;;4.50;3.00;;;;;;;25.77;40.91;99693.11;217625;1260;140194;-68
2023/07/10 18:20:35;;;;;;;4.70;3.10;;;;;;;25.55;41.25;99692.08;218354;1260;139846;-70
2023/07/10 18:25:41;;;;;;;3.40;2.90;;;;;;;25.31;41.59;99697.48;218007;1257;139309;-68
2023/07/10 18:30:46;;;;;;;11.00;4.20;;;;;;;24.90;41.26;99700.77;218100;1257;140092;-70
2023/07/10 18:35:56;;;;;;;8.30;4.00;;;;;;;24.70;42.13;99705.61;217882;1258;139364;-71
2023/07/10 18:41:00;;;;;;;8.60;3.30;;;;;;;24.62;42.77;99710.45;218963;1257;139410;-71
2023/07/10 18:46:05;;;;;;;4.20;2.50;;;;;;;24.52;43.51;99707.73;217952;1257;139025;-70
2023/07/10 18:51:32;;;;;;;4.60;3.30;;;;;;;24.42;43.18;99697.39;218819;1257;139812;-71
2023/07/10 18:56:40;;;;;;;6.40;3.00;;;;;;;24.32;43.68;99706.29;218462;1260;140024;-71
2023/07/10 19:01:48;;;;;;;5.90;3.40;;;;;;;24.20;44.03;99715.13;219034;1257;139441;-69
2023/07/10 19:06:57;;;;;;;4.70;2.80;;;;;;;24.08;42.86;99717.09;219331;1257;139343;-70
2023/07/10 19:12:04;;;;;;;3.90;3.20;;;;;;;23.96;42.19;99721.94;219513;1257;140119;-71
2023/07/10 19:17:18;;;;;;;9.80;3.90;;;;;;;23.84;42.23;99715.21;220413;1257;139818;-70
2023/07/10 19:22:22;;;;;;;5.70;4.20;;;;;;;23.77;42.02;99712.19;220056;1257;164143;-71
2023/07/10 19:27:26;;;;;;;13.80;5.50;;;;;;;23.72;42.70;99714.34;219565;1256;141541;-71
2023/07/10 19:32:31;;;;;;;7.60;3.50;;;;;;;23.67;43.51;99717.13;220388;1257;139670;-70
2023/07/10 19:37:36;;;;;;;14.40;4.50;;;;;;;23.57;43.91;99716.81;220285;1257;139694;-71
2023/07/10 19:42:41;;;;;;;7.00;3.60;;;;;;;23.50;44.68;99725.60;218678;1256;139290;-70
2023/07/10 19:47:46;;;;;;;3.40;3.10;;;;;;;23.44;44.44;99722.68;219258;1257;139460;-70
2023/07/10 19:52:51;;;;;;;15.60;5.00;;;;;;;23.33;44.33;99709.52;218581;1257;139232;-69
2023/07/10 19:57:57;;;;;;;8.20;4.20;;;;;;;23.26;45.33;99703.57;218535;1256;140471;-67
2023/07/10 20:03:14;;;;;;;6.50;3.60;;;;;;;23.11;45.96;99711.34;218178;1257;138799;-71
2023/07/10 20:08:27;;;;;;;4.20;3.90;;;;;;;22.96;46.40;99720.45;218256;1257;139292;-66
2023/07/10 20:13:34;;;;;;;4.40;3.40;;;;;;;22.82;46.63;99731.91;218238;1257;140397;-70
2023/07/10 20:18:43;;;;;;;3.70;3.30;;;;;;;22.66;47.10;99734.38;218699;1257;140316;-68
2023/07/10 20:23:51;;;;;;;6.50;3.80;;;;;;;22.56;47.25;99734.26;217699;1260;138731;-68
2023/07/10 20:29:00;;;;;;;6.30;5.00;;;;;;;22.52;47.70;99730.83;218567;1257;140225;-69
2023/07/10 20:34:11;;;;;;;10.00;5.00;;;;;;;22.48;48.29;99726.91;218733;1257;139602;-71
2023/07/10 20:39:20;;;;;;;7.60;4.90;;;;;;;22.40;48.83;99734.60;218157;1256;139171;-65
2023/07/10 20:44:38;;;;;;;6.20;5.60;;;;;;;22.33;49.14;99725.33;219124;1259;139253;-66
2023/07/10 20:49:46;;;;;;;6.30;5.40;;;;;;;22.39;49.35;99725.33;218438;1257;139249;-72
2023/07/10 20:54:52;;;;;;;5.60;4.80;;;;;;;22.46;49.93;99718.15;220325;1256;139958;-73
2023/07/10 21:00:00;;;;;;;6.00;5.50;;;;;;;22.43;50.22;99711.92;218888;1258;139421;-72
2023/07/10 21:05:05;;;;;;;5.70;5.30;;;;;;;22.38;50.46;99720.92;219304;1256;140036;-73
2023/07/10 21:10:14;;;;;;;7.40;5.50;;;;;;;22.34;51.04;99714.19;219265;1256;138618;-75
2023/07/10 21:15:30;;;;;;;5.70;5.20;;;;;;;22.27;51.37;99707.39;220330;1256;139623;-72
2023/07/10 21:20:34;;;;;;;7.10;5.80;;;;;;;22.22;51.98;99704.14;218578;1256;140168;-71
2023/07/10 21:25:45;;;;;;;6.60;5.80;;;;;;;22.16;52.35;99699.73;218807;1259;139226;-67
2023/07/10 21:30:52;;;;;;;6.00;5.50;;;;;;;22.11;52.53;99681.02;220685;1256;138887;-68
2023/07/10 21:36:00;;;;;;;6.40;5.70;;;;;;;22.15;52.39;99665.71;220579;1257;138812;-66
2023/07/10 21:41:10;;;;;;;11.20;6.40;;;;;;;22.18;52.38;99660.52;217732;1257;139214;-66
2023/07/10 21:46:26;;;;;;;7.70;6.60;;;;;;;22.18;52.88;99663.91;219323;1256;139509;-67
2023/07/10 21:51:34;;;;;;;6.60;6.00;;;;;;;22.08;53.25;99665.67;218593;1256;138939;-67
2023/07/10 21:56:43;;;;;;;7.30;6.60;;;;;;;21.99;53.50;99663.64;218903;1256;140311;-68
2023/07/10 22:02:36;;;;;;;7.50;6.80;;;;;;;21.86;54.12;99665.48;219079;1256;139261;-71
2023/07/10 22:07:43;;;;;;;6.70;6.00;;;;;;;21.66;54.70;99659.36;217699;1256;140035;-68
2023/07/10 22:13:00;;;;;;;8.10;6.80;;;;;;;21.51;55.49;99663.98;219395;1255;221651;-75
2023/07/10 22:18:13;;;;;;;7.50;6.40;;;;;;;21.33;55.64;99673.46;218477;1257;140001;-70
2023/07/10 22:23:23;;;;;;;6.70;6.10;;;;;;;21.15;56.03;99677.81;218417;1256;139877;-65
2023/07/10 22:28:31;;;;;;;7.70;7.00;;;;;;;20.94;56.42;99680.77;218851;1256;138829;-66
2023/07/10 22:33:38;;;;;;;8.20;6.70;;;;;;;20.69;56.77;99674.77;217635;1257;206748;-67
2023/07/10 22:38:43;;;;;;;9.00;7.40;;;;;;;20.42;57.22;99663.96;217703;1259;261466;-65
2023/07/10 22:43:51;;;;;;;10.10;6.90;;;;;;;20.23;57.72;99659.30;218192;1257;139711;-66
2023/07/10 22:48:59;;;;;;;8.20;7.50;;;;;;;20.09;58.26;99654.77;218773;1257;139849;-67
2023/07/10 22:54:07;;;;;;;10.10;7.10;;;;;;;19.92;58.49;99641.48;217881;1257;139066;-73
2023/07/10 22:59:17;;;;;;;7.40;6.80;;;;;;;19.75;58.99;99636.31;218418;1257;139480;-72
2023/07/10 23:04:22;;;;;;;7.30;6.70;;;;;;;19.64;59.41;99636.33;219559;1256;139696;-67
2023/07/10 23:09:28;;;;;;;7.50;6.80;;;;;;;19.48;59.63;99628.02;217882;1260;140134;-66
2023/07/10 23:14:33;;;;;;;7.60;6.70;;;;;;;19.23;60.11;99629.42;219663;1256;140070;-66
2023/07/10 23:19:55;;;;;;;7.40;6.70;;;;;;;19.10;60.66;99630.91;217513;1257;138698;-70
2023/07/10 23:24:59;;;;;;;10.00;7.40;;;;;;;19.07;61.21;99639.45;220524;1255;140322;-73
2023/07/10 23:30:07;;;;;;;8.50;7.50;;;;;;;19.06;61.53;99650.86;218689;1257;139950;-68
2023/07/10 23:35:12;;;;;;;8.70;7.90;;;;;;;19.02;61.93;99655.24;219018;1256;139777;-71